Etusivu
METAR-TAF:

METAR-TAF

Lentoasemat :

Ceuta, Espanja

Leveyspiiri: 35-53-33N, Pituuspiiri: 5-18-21W, korkeus merenpinnasta: 2 m

Tämänhetkinen sää

Tämä raportti tehtiin 26 minuuttia sitten, kello 09.30 UTC
Tuuli 16 kn lännestä/luoteesta
Lämpötila 22°C
Kosteus 83%
Ilmanpaine 1013 hPa
Näkyvyys 10 km tai enemmän
ei pilviä alle 1500 m:ssä eikä cumulonimbus-pilviä

METAR: GECE 210930Z AUTO 30016KT CAVOK 22/19 Q1013

Aika: 11:56 (09:56 UTC)

Sääennuste

Tämä raportti tehtiin 1 tunti ja 56 minuuttia sitten, kello 08.00 UTC
Ennuste voimassa 21. päivästä klo 09 UTC - 22. päivään klo 09 UTC
Tuuli 4 kn eri suunnista
Näkyvyys 10 km tai enemmän
ei pilviä alle 1500 m:ssä eikä cumulonimbus-pilviä
Tulossa
21. päivästä klo 09 UTC - 21. päivään klo 11 UTC
Tuuli 10 kn lännestä
Tulossa
22. päivästä klo 07 UTC - 22. päivään klo 09 UTC
Tuuli 4 kn idästä/koillisesta

TAF: GECE 210800Z 2109/2209 VRB04KT CAVOK TX29/2115Z TN21/2205Z BECMG 2109/2111 27010KT BECMG 2207/2209 07004KT

Säähavainnot ja -ennusteet yli 4000 lentoasemalta (METAR- ja TAF-raportit).

Käytössä olevat sääasemat on merkitty karttaan keltaisilla ja punaisilla pisteillä.

Aseta hiiri pisteen päälle nähdäksesi sääaseman nimen.

Klikkaa sitten nähdäksesi säähavainnot ja -ennusteet.

Kartan vaihtaminen: klikkaa mustalla rastilla varustettuja vihreitä pisteitä, niin voit zoomata sisään; viivalla varustettua vihreää pistettä, niin voit zoomata ulos tai vihreitä nuolia, niin pääset viereisille kartoille.


METAR-TAF: